createdAt,value
2023-05-18T00:02:08.898Z,2.70
2023-05-18T00:04:56.965Z,3.00
2023-05-18T00:07:43.863Z,2.45
2023-05-18T00:10:31.156Z,2.70
2023-05-18T00:13:17.022Z,2.95
2023-05-18T00:16:02.809Z,2.67
2023-05-18T00:18:48.800Z,2.95
2023-05-18T00:21:36.533Z,2.45
2023-05-18T00:24:22.370Z,2.60
2023-05-18T00:27:08.130Z,3.00
2023-05-18T00:29:53.790Z,3.00
2023-05-18T00:32:39.471Z,2.80
2023-05-18T00:35:25.567Z,2.90
2023-05-18T00:38:15.329Z,3.10
2023-05-18T00:41:02.079Z,3.08
2023-05-18T00:43:48.186Z,2.83
2023-05-18T00:46:34.251Z,3.13
2023-05-18T00:49:20.501Z,2.60
2023-05-18T00:52:06.690Z,3.10
2023-05-18T00:54:54.358Z,3.42
2023-05-18T00:57:42.109Z,2.90
2023-05-18T01:00:28.976Z,3.03
2023-05-18T01:03:15.436Z,2.65
2023-05-18T01:06:01.309Z,2.90
2023-05-18T01:08:48.497Z,3.05
2023-05-18T01:11:43.981Z,3.00
2023-05-18T01:14:36.597Z,3.15
2023-05-18T01:17:33.604Z,2.78
2023-05-18T01:20:29.341Z,2.88
2023-05-18T01:23:48.629Z,3.20
2023-05-18T01:26:39.564Z,2.85
2023-05-18T01:29:27.220Z,3.08
2023-05-18T01:32:19.498Z,2.60
2023-05-18T01:35:06.125Z,2.78
2023-05-18T01:37:51.758Z,3.17
2023-05-18T01:40:43.761Z,2.90
2023-05-18T01:43:33.720Z,2.75
2023-05-18T01:46:28.941Z,3.25
2023-05-18T01:49:20.950Z,3.75
2023-05-18T01:52:11.252Z,3.47
2023-05-18T01:55:01.795Z,3.40
2023-05-18T01:57:49.793Z,3.33
2023-05-18T02:00:38.051Z,3.30
2023-05-18T02:03:24.219Z,3.85
2023-05-18T02:06:09.681Z,3.20
2023-05-18T02:08:56.407Z,3.95
2023-05-18T02:11:42.107Z,3.38
2023-05-18T02:14:28.012Z,2.83
2023-05-18T02:17:15.137Z,3.00
2023-05-18T02:20:06.941Z,3.22
2023-05-18T02:22:52.898Z,3.55
2023-05-18T02:25:38.779Z,3.22
2023-05-18T02:28:24.651Z,3.28
2023-05-18T02:31:11.889Z,3.30
2023-05-18T02:33:58.990Z,3.65
2023-05-18T02:36:46.044Z,3.42
2023-05-18T02:39:31.766Z,3.75
2023-05-18T02:42:17.648Z,4.20
2023-05-18T02:45:03.694Z,3.53
2023-05-18T02:47:49.753Z,4.35
2023-05-18T02:50:37.052Z,4.30
2023-05-18T02:53:23.498Z,5.00
2023-05-18T02:56:09.475Z,4.32
2023-05-18T02:59:07.940Z,3.88
2023-05-18T03:04:42.719Z,3.88
2023-05-18T03:07:30.363Z,4.00
2023-05-18T03:10:16.651Z,4.00
2023-05-18T03:13:02.434Z,3.60
2023-05-18T03:15:49.297Z,4.00
2023-05-18T03:18:35.313Z,4.13
2023-05-18T03:21:21.890Z,4.03
2023-05-18T03:24:08.962Z,4.40
2023-05-18T03:26:57.280Z,4.05
2023-05-18T03:29:44.405Z,4.53
2023-05-18T03:32:33.256Z,4.30
2023-05-18T03:35:19.042Z,4.20
2023-05-18T03:38:04.761Z,4.75
2023-05-18T03:40:52.766Z,4.30
2023-05-18T03:43:38.840Z,4.03
2023-05-18T03:46:26.715Z,4.20
2023-05-18T03:49:12.672Z,4.40
2023-05-18T03:52:01.964Z,4.72
2023-05-18T03:54:49.804Z,4.63
2023-05-18T03:57:38.455Z,4.90
2023-05-18T04:00:24.706Z,4.18
2023-05-18T04:03:12.759Z,4.80
2023-05-18T04:05:58.504Z,4.07
2023-05-18T04:08:46.411Z,4.10
2023-05-18T04:11:31.866Z,4.18
2023-05-18T04:14:20.871Z,3.92
2023-05-18T04:17:07.042Z,3.90
2023-05-18T04:19:53.091Z,4.25
2023-05-18T04:22:46.677Z,4.20
2023-05-18T04:25:32.772Z,3.55
2023-05-18T04:28:19.224Z,4.00
2023-05-18T04:31:06.630Z,3.90
2023-05-18T04:33:52.445Z,3.40
2023-05-18T04:36:42.620Z,3.88
2023-05-18T04:39:28.683Z,3.97
2023-05-18T04:42:14.624Z,3.88
2023-05-18T04:45:03.924Z,3.60
2023-05-18T04:47:54.235Z,3.55
2023-05-18T04:50:42.002Z,3.20
2023-05-18T04:53:27.900Z,2.97
2023-05-18T04:56:13.988Z,2.83
2023-05-18T04:59:00.189Z,2.72
2023-05-18T05:01:48.115Z,3.33
2023-05-18T05:04:35.267Z,2.80
2023-05-18T05:07:21.750Z,2.30
2023-05-18T05:10:08.918Z,2.70
2023-05-18T05:12:54.762Z,2.67
2023-05-18T05:15:40.612Z,2.55
2023-05-18T05:18:26.413Z,2.72
2023-05-18T05:21:18.193Z,2.30
2023-05-18T05:24:06.081Z,2.45
2023-05-18T05:26:51.680Z,2.17
2023-05-18T05:29:37.378Z,2.40
2023-05-18T05:32:22.997Z,2.20
2023-05-18T05:35:09.900Z,2.00
2023-05-18T05:37:56.992Z,2.67
2023-05-18T05:40:43.269Z,2.00
2023-05-18T05:43:29.069Z,1.75
2023-05-18T05:46:14.981Z,2.20
2023-05-18T05:49:02.128Z,1.80
2023-05-18T05:51:48.848Z,2.10
2023-05-18T05:54:36.257Z,2.25
2023-05-18T05:57:25.257Z,2.50
2023-05-18T06:00:13.493Z,1.95
2023-05-18T06:03:11.933Z,2.00
2023-05-18T06:06:03.996Z,1.85
2023-05-18T06:08:50.275Z,1.77
2023-05-18T06:11:38.735Z,1.80
2023-05-18T06:14:24.585Z,1.77
2023-05-18T06:17:11.271Z,1.88
2023-05-18T06:19:57.466Z,1.90
2023-05-18T06:22:44.624Z,1.92
2023-05-18T06:25:42.303Z,2.22
2023-05-18T06:28:35.990Z,1.65
2023-05-18T06:31:38.256Z,1.38
2023-05-18T06:34:34.663Z,1.70
2023-05-18T06:37:21.399Z,1.92
2023-05-18T06:40:08.863Z,1.80
2023-05-18T06:42:54.878Z,1.60
2023-05-18T06:45:47.915Z,1.42
2023-05-18T06:48:55.272Z,1.45
2023-05-18T06:51:42.900Z,1.60
2023-05-18T06:54:29.890Z,1.83
2023-05-18T06:57:15.832Z,1.58
2023-05-18T07:00:02.776Z,1.60
2023-05-18T07:02:51.285Z,1.52
2023-05-18T07:05:39.569Z,1.63
2023-05-18T07:08:25.743Z,1.70
2023-05-18T07:11:11.627Z,1.85
2023-05-18T07:13:57.367Z,1.45
2023-05-18T07:16:44.287Z,1.70
2023-05-18T07:19:31.535Z,1.92
2023-05-18T07:22:17.322Z,2.35
2023-05-18T07:25:06.468Z,1.73
2023-05-18T07:27:54.564Z,1.80
2023-05-18T07:30:41.265Z,1.55
2023-05-18T07:33:27.139Z,1.85
2023-05-18T07:36:14.522Z,1.67
2023-05-18T07:39:01.277Z,1.67
2023-05-18T07:41:48.500Z,2.25
2023-05-18T07:44:34.130Z,1.60
2023-05-18T07:47:21.613Z,1.73
2023-05-18T07:50:08.468Z,1.58
2023-05-18T07:52:58.364Z,1.58
2023-05-18T07:55:44.324Z,1.70
2023-05-18T07:58:30.598Z,1.77
2023-05-18T08:01:17.126Z,1.55
2023-05-18T08:04:03.027Z,1.65
2023-05-18T08:06:48.976Z,2.20
2023-05-18T08:09:36.386Z,2.10
2023-05-18T08:12:23.198Z,1.95
2023-05-18T08:15:10.060Z,1.70
2023-05-18T08:17:57.119Z,1.85
2023-05-18T08:20:44.018Z,1.67
2023-05-18T08:23:29.742Z,1.73
2023-05-18T08:26:17.350Z,1.65
2023-05-18T08:29:09.581Z,2.03
2023-05-18T08:31:55.670Z,2.40
2023-05-18T08:34:41.724Z,1.42
2023-05-18T08:37:29.438Z,1.60
2023-05-18T08:40:15.764Z,1.52
2023-05-18T08:43:07.316Z,1.60
2023-05-18T08:45:58.769Z,1.73
2023-05-18T08:48:46.888Z,2.22
2023-05-18T08:51:35.440Z,1.83
2023-05-18T08:54:23.310Z,1.55
2023-05-18T08:57:10.649Z,1.40
2023-05-18T09:00:00.570Z,1.63
2023-05-18T09:02:48.618Z,1.65
2023-05-18T09:05:35.039Z,1.80
2023-05-18T09:08:22.066Z,1.85
2023-05-18T09:11:09.488Z,2.15
2023-05-18T09:13:55.725Z,1.85
2023-05-18T09:16:42.814Z,1.70
2023-05-18T09:19:28.894Z,1.60
2023-05-18T09:22:15.356Z,1.65
2023-05-18T09:25:01.011Z,1.40
2023-05-18T09:27:48.780Z,1.90
2023-05-18T09:30:41.345Z,1.92
2023-05-18T09:33:34.429Z,1.85
2023-05-18T09:36:25.227Z,1.83
2023-05-18T09:39:11.671Z,1.70
2023-05-18T09:41:58.133Z,2.08
2023-05-18T09:44:46.118Z,1.90
2023-05-18T09:47:34.356Z,1.90
2023-05-18T09:50:22.229Z,2.05
2023-05-18T09:53:09.295Z,2.22
2023-05-18T09:55:55.539Z,1.75
2023-05-18T09:58:41.639Z,2.40
2023-05-18T10:01:27.633Z,1.63
2023-05-18T10:04:13.750Z,2.10
2023-05-18T10:07:02.014Z,1.77
2023-05-18T10:10:01.667Z,2.40
2023-05-18T10:12:47.830Z,1.85
2023-05-18T10:15:35.408Z,1.70
2023-05-18T10:18:23.183Z,2.05
2023-05-18T10:21:12.528Z,1.65
2023-05-18T10:24:03.081Z,1.98
2023-05-18T10:26:54.093Z,1.50
2023-05-18T10:29:41.466Z,2.17
2023-05-18T10:32:29.873Z,2.17
2023-05-18T10:35:16.930Z,1.88
2023-05-18T10:38:05.285Z,1.77
2023-05-18T10:40:53.677Z,1.85
2023-05-18T10:43:42.165Z,1.70
2023-05-18T10:46:28.539Z,1.70
2023-05-18T10:49:17.419Z,1.75
2023-05-18T10:52:07.484Z,2.15
2023-05-18T10:54:54.234Z,1.70
2023-05-18T10:57:46.042Z,2.05
2023-05-18T11:00:35.139Z,2.35
2023-05-18T11:03:22.308Z,2.10
2023-05-18T11:06:10.502Z,2.60
2023-05-18T11:08:56.395Z,1.65
2023-05-18T11:11:53.084Z,1.83
2023-05-18T11:14:48.477Z,1.75
2023-05-18T11:17:34.276Z,2.38
2023-05-18T11:20:25.727Z,2.38
2023-05-18T11:23:14.626Z,2.17
2023-05-18T11:26:04.758Z,2.47
2023-05-18T11:28:52.863Z,2.15
2023-05-18T11:31:47.504Z,2.25
2023-05-18T11:34:42.353Z,1.90
2023-05-18T11:37:55.812Z,1.98
2023-05-18T11:40:46.828Z,2.03
2023-05-18T11:43:33.433Z,1.98
2023-05-18T11:46:22.276Z,2.28
2023-05-18T11:49:09.859Z,1.90
2023-05-18T11:52:04.483Z,2.20
2023-05-18T11:54:53.180Z,1.95
2023-05-18T11:57:40.647Z,1.83
2023-05-18T12:00:26.611Z,2.53
2023-05-18T12:03:13.557Z,2.20
2023-05-18T12:06:01.306Z,2.17
2023-05-18T12:08:47.152Z,2.20
2023-05-18T12:11:33.564Z,2.75
2023-05-18T12:14:20.978Z,1.77
2023-05-18T12:17:07.542Z,2.17
2023-05-18T12:19:53.582Z,2.17
2023-05-18T12:22:42.891Z,2.08
2023-05-18T12:25:28.970Z,2.03
2023-05-18T12:28:16.622Z,2.30
2023-05-18T12:31:07.337Z,1.90
2023-05-18T12:33:56.089Z,1.80
2023-05-18T12:36:52.479Z,2.30
2023-05-18T12:39:39.561Z,2.15
2023-05-18T12:42:25.439Z,1.90
2023-05-18T12:45:11.949Z,2.33
2023-05-18T12:48:04.429Z,2.53
2023-05-18T12:50:51.399Z,2.20
2023-05-18T12:53:43.267Z,2.90
2023-05-18T12:56:50.881Z,2.30
2023-05-18T12:59:47.258Z,2.20
2023-05-18T13:02:36.606Z,1.92
2023-05-18T13:05:25.325Z,2.00
2023-05-18T13:08:14.608Z,1.83
2023-05-18T13:11:12.591Z,2.10
2023-05-18T13:14:03.560Z,1.98
2023-05-18T13:16:52.379Z,1.80
2023-05-18T13:19:37.903Z,1.77
2023-05-18T13:22:23.735Z,2.00
2023-05-18T13:25:09.539Z,1.85
2023-05-18T13:27:56.196Z,2.13
2023-05-18T13:30:44.811Z,1.63
2023-05-18T13:33:30.531Z,2.15
2023-05-18T13:36:17.255Z,2.08
2023-05-18T13:39:07.163Z,2.38
2023-05-18T13:41:53.135Z,1.83
2023-05-18T13:44:38.923Z,1.98
2023-05-18T13:47:26.322Z,1.80
2023-05-18T13:50:12.370Z,1.92
2023-05-18T13:52:58.242Z,1.70
2023-05-18T13:55:44.173Z,2.03
2023-05-18T13:58:30.170Z,1.80
2023-05-18T14:01:17.833Z,2.00
2023-05-18T14:04:05.249Z,2.58
2023-05-18T14:06:54.245Z,2.17
2023-05-18T14:09:40.035Z,2.22
2023-05-18T14:12:25.839Z,2.03
2023-05-18T14:15:13.902Z,2.50
2023-05-18T14:17:59.708Z,2.13
2023-05-18T14:20:48.412Z,1.98
2023-05-18T14:23:34.069Z,2.22
2023-05-18T14:26:19.601Z,2.38
2023-05-18T14:29:05.700Z,1.92
2023-05-18T14:31:51.803Z,1.70
2023-05-18T14:34:37.356Z,2.15
2023-05-18T14:37:24.734Z,1.83
2023-05-18T14:40:11.446Z,2.20
2023-05-18T14:42:57.014Z,2.00
2023-05-18T14:45:44.891Z,2.20
2023-05-18T14:48:32.243Z,2.55
2023-05-18T14:51:18.431Z,2.00
2023-05-18T14:54:05.861Z,2.03
2023-05-18T14:56:51.962Z,2.30
2023-05-18T14:59:43.412Z,2.95
2023-05-18T15:02:29.069Z,1.88
2023-05-18T15:05:15.013Z,2.20
2023-05-18T15:08:01.011Z,2.15
2023-05-18T15:10:49.923Z,2.30
2023-05-18T15:13:36.080Z,1.92
2023-05-18T15:16:22.318Z,1.88
2023-05-18T15:19:07.882Z,1.90
2023-05-18T15:21:53.876Z,1.73
2023-05-18T15:24:39.766Z,2.10
2023-05-18T15:27:27.252Z,2.10
2023-05-18T15:30:13.613Z,2.00
2023-05-18T15:32:59.705Z,2.30
2023-05-18T15:35:46.491Z,2.33
2023-05-18T15:38:32.230Z,1.73
2023-05-18T15:41:19.174Z,2.00
2023-05-18T15:44:06.384Z,1.98
2023-05-18T15:46:52.424Z,2.05
2023-05-18T15:49:38.034Z,1.92
2023-05-18T15:52:24.010Z,2.20
2023-05-18T15:55:10.317Z,1.90
2023-05-18T15:57:56.155Z,2.38
2023-05-18T16:00:43.514Z,2.15
2023-05-18T16:03:30.086Z,2.35
2023-05-18T16:06:16.199Z,2.10
2023-05-18T16:09:02.259Z,2.05
2023-05-18T16:11:48.072Z,1.83
2023-05-18T16:14:33.966Z,2.20
2023-05-18T16:17:21.367Z,2.20
2023-05-18T16:20:08.373Z,2.28
2023-05-18T16:22:54.525Z,2.40
2023-05-18T16:25:40.392Z,2.47
2023-05-18T16:28:26.311Z,2.38
2023-05-18T16:31:12.562Z,2.35
2023-05-18T16:33:59.917Z,2.00
2023-05-18T16:36:45.531Z,2.15
2023-05-18T16:39:31.326Z,2.17
2023-05-18T16:42:18.387Z,2.05
2023-05-18T16:45:04.846Z,2.10
2023-05-18T16:47:50.737Z,2.08
2023-05-18T16:50:38.000Z,2.35
2023-05-18T16:53:23.653Z,2.15
2023-05-18T16:56:09.648Z,2.20
2023-05-18T16:58:55.535Z,2.22
2023-05-18T17:01:41.667Z,2.20
2023-05-18T17:04:27.560Z,2.00
2023-05-18T17:07:14.426Z,2.20
2023-05-18T17:10:00.560Z,2.33
2023-05-18T17:12:46.629Z,2.38
2023-05-18T17:15:32.873Z,2.00
2023-05-18T17:18:18.830Z,2.03
2023-05-18T17:21:04.441Z,2.15
2023-05-18T17:23:51.403Z,2.10
2023-05-18T17:26:37.313Z,2.40
2023-05-18T17:29:23.447Z,2.15
2023-05-18T17:32:09.291Z,2.50
2023-05-18T17:34:55.215Z,2.42
2023-05-18T17:37:41.252Z,2.25
2023-05-18T17:40:28.414Z,2.30
2023-05-18T17:43:14.698Z,2.35
2023-05-18T17:46:00.636Z,2.35
2023-05-18T17:48:46.378Z,2.00
2023-05-18T17:51:32.407Z,2.33
2023-05-18T17:54:18.272Z,2.50
2023-05-18T17:57:05.846Z,2.95
2023-05-18T17:59:51.402Z,2.30
2023-05-18T18:02:36.993Z,2.47
2023-05-18T18:05:22.893Z,2.80
2023-05-18T18:08:08.464Z,2.50
2023-05-18T18:10:54.468Z,2.97
2023-05-18T18:13:41.506Z,2.40
2023-05-18T18:16:27.741Z,2.47
2023-05-18T18:19:14.964Z,2.42
2023-05-18T18:22:00.805Z,2.15
2023-05-18T18:24:46.869Z,3.03
2023-05-18T18:27:33.007Z,2.63
2023-05-18T18:30:20.069Z,2.70
2023-05-18T18:33:05.846Z,2.97
2023-05-18T18:35:52.017Z,2.33
2023-05-18T18:38:37.839Z,2.50
2023-05-18T18:41:23.704Z,2.40
2023-05-18T18:44:09.843Z,2.20
2023-05-18T18:46:57.143Z,2.60
2023-05-18T18:49:42.777Z,2.67
2023-05-18T18:52:28.453Z,2.70
2023-05-18T18:55:14.253Z,2.53
2023-05-18T18:58:01.269Z,2.47
2023-05-18T19:00:47.139Z,2.10
2023-05-18T19:03:35.230Z,2.58
2023-05-18T19:06:22.716Z,2.60
2023-05-18T19:09:08.222Z,2.70
2023-05-18T19:11:54.118Z,2.50
2023-05-18T19:14:39.982Z,2.60
2023-05-18T19:17:26.800Z,2.60
2023-05-18T19:20:13.843Z,2.65
2023-05-18T19:23:00.170Z,2.45
2023-05-18T19:25:46.068Z,2.60
2023-05-18T19:28:32.079Z,3.03
2023-05-18T19:31:18.058Z,2.53
2023-05-18T19:34:04.240Z,2.53
2023-05-18T19:36:51.936Z,2.95
2023-05-18T19:39:37.950Z,2.90
2023-05-18T19:42:23.802Z,3.22
2023-05-18T19:45:09.850Z,2.95
2023-05-18T19:47:55.726Z,2.85
2023-05-18T19:50:41.388Z,2.58
2023-05-18T19:53:28.648Z,3.08
2023-05-18T19:56:14.600Z,2.90
2023-05-18T19:59:00.566Z,3.20
2023-05-18T20:01:49.020Z,3.45
2023-05-18T20:04:34.950Z,3.10
2023-05-18T20:07:21.875Z,3.78
2023-05-18T20:10:09.171Z,3.47
2023-05-18T20:12:55.133Z,3.65
2023-05-18T20:15:40.810Z,3.30
2023-05-18T20:18:28.600Z,3.63
2023-05-18T20:21:14.528Z,4.32
2023-05-18T20:24:00.434Z,3.53
2023-05-18T20:26:47.964Z,3.85
2023-05-18T20:29:33.598Z,3.50
2023-05-18T20:32:19.448Z,3.50
2023-05-18T20:35:06.002Z,4.38
2023-05-18T20:37:55.802Z,4.50
2023-05-18T20:40:41.726Z,4.25
2023-05-18T20:43:28.923Z,4.88
2023-05-18T20:46:14.609Z,4.40
2023-05-18T20:49:00.467Z,4.38
2023-05-18T20:51:46.323Z,4.72
2023-05-18T20:54:32.362Z,4.43
2023-05-18T20:57:18.514Z,4.38
2023-05-18T21:00:07.996Z,3.75
2023-05-18T21:02:54.005Z,3.90
2023-05-18T21:05:40.170Z,3.13
2023-05-18T21:08:26.412Z,3.72
2023-05-18T21:11:12.019Z,3.75
2023-05-18T21:13:57.710Z,3.63
2023-05-18T21:16:45.099Z,3.30
2023-05-18T21:19:31.005Z,3.60
2023-05-18T21:22:16.992Z,3.03
2023-05-18T21:25:06.023Z,3.33
2023-05-18T21:27:51.804Z,3.55
2023-05-18T21:30:37.665Z,3.47
2023-05-18T21:33:25.117Z,3.30
2023-05-18T21:36:10.898Z,3.33
2023-05-18T21:38:56.580Z,3.50
2023-05-18T21:41:44.294Z,3.42
2023-05-18T21:44:30.033Z,3.58
2023-05-18T21:47:16.011Z,3.05
2023-05-18T21:50:04.180Z,3.13
2023-05-18T21:52:49.943Z,2.85
2023-05-18T21:55:36.230Z,3.05
2023-05-18T21:58:22.161Z,3.10
2023-05-18T22:01:07.908Z,3.30
2023-05-18T22:03:53.896Z,3.05
2023-05-18T22:06:41.431Z,3.28
2023-05-18T22:09:27.168Z,3.30
2023-05-18T22:12:13.226Z,3.13
2023-05-18T22:14:59.325Z,2.78
2023-05-18T22:17:46.143Z,2.88
2023-05-18T22:20:32.649Z,2.92
2023-05-18T22:23:19.976Z,3.20
2023-05-18T22:26:06.072Z,3.17
2023-05-18T22:28:52.154Z,3.30
2023-05-18T22:31:38.093Z,2.80
2023-05-18T22:34:24.334Z,3.55
2023-05-18T22:37:10.331Z,3.53
2023-05-18T22:39:57.663Z,3.30
2023-05-18T22:42:43.647Z,3.28
2023-05-18T22:45:29.550Z,3.95
2023-05-18T22:48:15.520Z,3.80
2023-05-18T22:51:01.359Z,3.97
2023-05-18T22:53:47.177Z,3.63
2023-05-18T22:56:34.420Z,4.15
2023-05-18T22:59:20.515Z,3.85
2023-05-18T23:02:06.532Z,3.92
2023-05-18T23:04:52.758Z,3.90
2023-05-18T23:07:38.677Z,3.92
2023-05-18T23:10:26.445Z,4.20
2023-05-18T23:13:16.960Z,4.15
2023-05-18T23:16:03.015Z,4.00
2023-05-18T23:18:50.546Z,4.18
2023-05-18T23:21:36.556Z,3.75
2023-05-18T23:24:22.553Z,4.05
2023-05-18T23:27:08.611Z,4.38
2023-05-18T23:29:56.003Z,4.53
2023-05-18T23:32:42.520Z,4.13
2023-05-18T23:35:28.872Z,4.03
2023-05-18T23:38:18.617Z,4.05
2023-05-18T23:41:05.226Z,4.40
2023-05-18T23:43:51.338Z,4.35
2023-05-18T23:46:39.323Z,4.15
2023-05-18T23:49:25.863Z,4.18
2023-05-18T23:52:13.667Z,4.32
2023-05-18T23:55:00.404Z,4.38
2023-05-18T23:57:46.545Z,3.90
